Saturday, September 22, 2018, 9:48 AM EDT
Back to Local

KMSV, Monticello, Sullivan County International Airport

Location: Swan Lake, NY, United States Lat: 41.7
Local Time: 9:48 AM EDT (13:48 GMT) Lon: -74.8
Time Zone: US/Eastern Elev: 1404 ft

Show me the last for .
Show Decoded

2018-09-22 08:56 METAR KMSV 221256Z AUTO 31006G15KT 10SM BKN027 13/09 A3016 RMK AO2 SLP212
                 T01280089 =
2018-09-22 08:47 METAR KMSV 221247Z AUTO 31009KT 10SM FEW002 BKN027 13/09 A3016 RMK AO2 =
2018-09-22 08:06 METAR KMSV 221206Z AUTO 31018G23KT 10SM FEW002 SCT026 13/09 A3014 RMK AO2 =
2018-09-22 07:56 METAR KMSV 221156Z AUTO 31013G19KT 10SM FEW002 BKN026 13/09 A3014 RMK AO2 SLP203
                 60001 7//// T01330094 10189 20133 51025 =
2018-09-22 07:51 METAR KMSV 221151Z AUTO 33011G20KT 10SM FEW002 BKN026 13/09 A3014 RMK AO2 =
2018-09-22 07:24 METAR KMSV 221124Z AUTO 29009G18KT 10SM SCT002 14/10 A3011 RMK AO2 =
2018-09-22 06:56 METAR KMSV 221056Z AUTO 30010G15KT 10SM OVC002 14/12 A3009 RMK AO2 SLP188
                 T01440122 =
2018-09-22 05:56 METAR KMSV 220956Z AUTO 31006KT 10SM OVC002 15/13 A3006 RMK AO2 SLP176 T01500128
                 =
2018-09-22 04:56 METAR KMSV 220856Z AUTO 30009KT 10SM OVC002 16/14 A3003 RMK AO2 SLP165 60001
                 T01610144 53017 =
2018-09-22 03:56 METAR KMSV 220756Z AUTO 28011KT 10SM OVC002 19/18 A2999 RMK AO2 SLP149 P0001
                 T01890183 =
2018-09-22 02:56 METAR KMSV 220656Z AUTO 27006KT 9SM BKN002 OVC015 19/19 A2998 RMK AO2 SLP147
                 T01890189 =
2018-09-22 01:56 METAR KMSV 220556Z AUTO 28005KT 10SM OVC002 19/18 A2998 RMK AO2 RAE42 SLP146
                 P0020 6//// T01890183 10194 20183 55008 =
2018-09-22 01:44 METAR KMSV 220544Z AUTO 26005KT 10SM BKN002 BKN015 OVC048 19/18 A2996 RMK AO2
                 RAE42 P0020 =
2018-09-22 00:56 METAR KMSV 220456Z AUTO 22008KT 10SM -RA OVC006 19/19 A2996 RMK AO2 RAB09 SLP139
                 P0000 T01940189 401940156 =
2018-09-21 23:56 METAR KMSV 220356Z AUTO 19006KT 10SM OVC006 19/18 A2997 RMK AO2 SLP145 T01890183
                 =
2018-09-21 22:56 METAR KMSV 220256Z AUTO 21005KT 10SM OVC008 19/18 A3000 RMK AO2 SLP154 6////
                 T01890178 58000 =
2018-09-21 21:56 METAR KMSV 220156Z AUTO 22008G17KT 10SM OVC008 19/18 A3001 RMK AO2 SLP159
                 T01890178 =
2018-09-21 20:56 METAR KMSV 220056Z AUTO 20007G16KT 10SM OVC008 19/18 A3003 RMK AO2 SLP163
                 T01890178 =
2018-09-21 19:56 METAR KMSV 212356Z AUTO 20010KT 10SM OVC008 18/17 A3000 RMK AO2 SLP156 T01830172
                 10183 20178 56022 =
2018-09-21 19:21 METAR KMSV 212321Z AUTO VRB05KT 10SM OVC008 18/17 A3000 RMK AO2 =
2018-09-21 18:56 METAR KMSV 212256Z AUTO 19007G18KT 10SM OVC010 18/17 A3002 RMK AO2 SLP161
                 T01830167 =
2018-09-21 17:56 METAR KMSV 212156Z AUTO 17008KT 10SM OVC010 18/17 A3005 RMK AO2 SLP171 T01830167
                 =
2018-09-21 17:43 METAR KMSV 212143Z AUTO 19005KT 10SM OVC010 18/17 A3005 RMK AO2 =
2018-09-21 16:56 METAR KMSV 212056Z AUTO 17008KT 10SM OVC008 18/17 A3007 RMK AO2 SLP179 T01780167
                 56025 =
2018-09-21 16:28 METAR KMSV 212028Z AUTO 18006KT 7SM OVC008 18/17 A3008 RMK AO2 =
2018-09-21 15:56 METAR KMSV 211956Z AUTO 19008KT 10SM OVC010 18/16 A3010 RMK AO2 SLP189 T01830161
                 =
2018-09-21 14:56 METAR KMSV 211856Z AUTO 18010G15KT 10SM OVC010 18/16 A3012 RMK AO2 SLP196
                 T01780161 =
2018-09-21 13:56 METAR KMSV 211756Z AUTO 17007KT 10SM OVC010 18/16 A3015 RMK AO2 SLP206 60000
                 T01780156 10178 20161 58021 =
2018-09-21 13:43 METAR KMSV 211743Z AUTO 16008KT 10SM OVC010 18/16 A3015 RMK AO2 CIG 008V012 =
2018-09-21 12:56 METAR KMSV 211656Z AUTO 19005KT 10SM OVC006 17/16 A3017 RMK AO2 RAE31 SLP215
                 P0000 T01670156 =
2018-09-21 12:21 METAR KMSV 211621Z AUTO 17007KT 4SM -RA BR OVC004 17/16 A3019 RMK AO2 P0000 =
2018-09-21 11:56 METAR KMSV 211556Z AUTO 19007KT 3SM -RA BR OVC006 17/16 A3020 RMK AO2 RAB21
                 SLP222 P0000 T01670156 =
2018-09-21 11:36 METAR KMSV 211536Z AUTO 19007KT 3SM -RA BR OVC006 16/16 A3020 RMK AO2 RAB21
                 P0000 =
2018-09-21 11:26 METAR KMSV 211526Z AUTO 19009KT 2 1/2SM -RA BR OVC006 16/16 A3020 RMK AO2 RAB21
                 P0000 =
2018-09-21 10:56 METAR KMSV 211456Z AUTO 18011KT 10SM OVC006 17/15 A3021 RMK AO2 SLP228 T01670150
                 58014 =
2018-09-21 09:56 METAR KMSV 211356Z AUTO 19006KT 8SM OVC006 16/15 A3022 RMK AO2 SLP233 T01610150
                 =

Support USWX by starting your Amazon purchase here.